This is the latest recevied weather packets stored in our database for station/object KR4DFQ. If no packets are shown the sender has not sent any weather packets the latest 10 day(s).
| Time | Temp. | Humidity | Pressure | Rain* | Wind** | Luminosity | Snow |
|---|---|---|---|---|---|---|---|
| 1787834773 | 31.11° C | 70% | 1017.4 hPa | 0 mm | - | 284 W/m² | - |
| 1787834469 | 30.56° C | 70% | 1017.2 hPa | 0 mm | - | 318 W/m² | - |
| 1787834164 | 30.56° C | 73% | 1017 hPa | 0 mm | - | 305 W/m² | - |
| 1787833860 | 30.56° C | 71% | 1017.1 hPa | 0 mm | - | 77 W/m² | - |
| 1787833555 | 31.11° C | 69% | 1017 hPa | 0 mm | - | 106 W/m² | - |
| 1787833251 | 30.56° C | 71% | 1017.2 hPa | 0 mm | - | 183 W/m² | - |
| 1787832946 | 30° C | 72% | 1016.9 hPa | 0 mm | - | 165 W/m² | - |
| 1787832643 | 30° C | 72% | 1016.9 hPa | 0 mm | - | 85 W/m² | - |
| 1787832340 | 29.44° C | 73% | 1016.8 hPa | 0 mm | - | 122 W/m² | - |
| 1787832041 | 28.89° C | 76% | 1016.7 hPa | 0 mm | - | 109 W/m² | - |
| 1787831740 | 28.33° C | 79% | 1016.9 hPa | 0 mm | - | 68 W/m² | - |
| 1787831438 | 27.78° C | 80% | 1017.1 hPa | 0 mm | - | 40 W/m² | - |
| 1787831137 | 27.78° C | 80% | 1017.1 hPa | 0 mm | - | 35 W/m² | - |
| 1787830834 | 27.78° C | 81% | 1016.9 hPa | 0 mm | - | 35 W/m² | - |
| 1787830534 | 27.78° C | 81% | 1016.8 hPa | 0 mm | - | 29 W/m² | - |
| 1787830234 | 27.78° C | 80% | 1016.7 hPa | 0 mm | - | 22 W/m² | - |
| 1787829934 | 27.78° C | 80% | 1016.6 hPa | 0 mm | - | 22 W/m² | - |
| 1787829633 | 27.78° C | 79% | 1016.5 hPa | 0 mm | - | 19 W/m² | - |
| 1787829329 | 27.78° C | 79% | 1016.4 hPa | 0 mm | - | 15 W/m² | - |
| 1787829024 | 27.78° C | 79% | 1016.4 hPa | 0 mm | - | 11 W/m² | - |
| 1787828720 | 27.78° C | 80% | 1016.2 hPa | 0 mm | - | 7 W/m² | - |
| 1787828416 | 27.78° C | 80% | 1016.3 hPa | 0 mm | - | 4 W/m² | - |
| 1787828114 | 27.78° C | 79% | 1016.2 hPa | 0 mm | - | 2 W/m² | - |
| 1787827814 | 27.78° C | 79% | 1016.2 hPa | 0 mm | - | 1 W/m² | - |
| 1787827509 | 27.78° C | 80% | 1016.3 hPa | 0 mm | - | 0 W/m² | - |
* Rain latest hour (hover to see other rain measurements)
** Current wind speed in m/s (hover to see current wind gust speed)